フランクフルト の空港の天気 - METARとTAF

フランクフルト国際空港 ( EDDF / FRA ) - ドイツ フランクフルト・アム・マイン
飛行場実況気象(Metar)
観測時間11/22 13:50 CET (11/22 12:50 UTC)
風向・風速南西 7m/s
視程10km以上
天気現象
少しの雲 雲底高度 850m
全天の8割程度の雲 雲底高度 7920m
気温13℃
湿度58%
気圧1011hPa
METAREDDF 221250Z 22013KT 9999 FEW028 BKN260 13/05 Q1011 NOSIG
過去の天気等 Google飛行場航空写真 Wunderground天気予報

過去48時間のMETAR

飛行場予報(TAF)
発表時間: 11/22 12:00 CET (11/22 11:00 UTC)
予報対象時間: 22日13時 CET ~ 23日19時 CET
風向・風速南南西 5m/s
視程10km以上
なし
22日16時 CET ~ 22日19時 CET に徐々に
風向・風速南 3m/s
23日8時 CET ~ 23日11時 CET に徐々に
風向・風速南南西 6m/s
23日13時 CET ~ 23日19時 CET に一時的に
風向・風速南西 8m/s 瞬間風速 13m/s
23日13時 CET ~ 23日16時 CET に徐々に
全天の8割程度の雲 雲底高度 1,370m
TAF EDDF 221100Z 2212/2318 20010KT CAVOK
BECMG 2215/2218 17005KT
BECMG 2307/2310 20012KT
TEMPO 2312/2318 22015G25KT
BECMG 2312/2315 BKN045